createdAt,value
2023-01-02T00:00:03.676Z,46.70
2023-01-02T00:02:31.521Z,46.40
2023-01-02T00:04:59.442Z,46.10
2023-01-02T00:07:27.309Z,46.30
2023-01-02T00:09:56.439Z,46.10
2023-01-02T00:12:24.737Z,46.20
2023-01-02T00:14:52.533Z,46.20
2023-01-02T00:17:20.617Z,46.10
2023-01-02T00:19:48.476Z,46.20
2023-01-02T00:22:16.462Z,46.40
2023-01-02T00:24:44.405Z,46.80
2023-01-02T00:27:13.589Z,46.80
2023-01-02T00:29:41.449Z,46.60
2023-01-02T00:32:09.260Z,46.20
2023-01-02T00:34:37.062Z,46.20
2023-01-02T00:37:04.849Z,46.50
2023-01-02T00:39:32.702Z,46.60
2023-01-02T00:42:00.518Z,46.40
2023-01-02T00:44:29.569Z,46.90
2023-01-02T00:46:57.506Z,46.10
2023-01-02T00:49:25.348Z,45.70
2023-01-02T00:51:53.176Z,45.70
2023-01-02T00:54:20.951Z,46.10
2023-01-02T00:56:48.740Z,45.50
2023-01-02T00:59:16.496Z,45.90
2023-01-02T01:01:46.478Z,45.80
2023-01-02T01:04:15.013Z,46.10
2023-01-02T01:06:42.945Z,46.20
2023-01-02T01:09:10.742Z,46.60
2023-01-02T01:11:38.662Z,46.90
2023-01-02T01:14:06.430Z,47.10
2023-01-02T01:16:34.265Z,47.40
2023-01-02T01:19:03.408Z,47.40
2023-01-02T01:21:31.471Z,47.40
2023-01-02T01:23:59.242Z,47.20
2023-01-02T01:26:27.142Z,47.50
2023-01-02T01:28:55.475Z,47.40
2023-01-02T01:31:24.596Z,47.40
2023-01-02T01:33:52.581Z,47.20
2023-01-02T01:36:23.898Z,47.50
2023-01-02T01:38:52.368Z,47.80
2023-01-02T01:41:22.375Z,48.40
2023-01-02T01:43:51.661Z,48.50
2023-01-02T01:46:25.959Z,48.50
2023-01-02T01:49:00.291Z,48.90
2023-01-02T01:51:31.350Z,48.80
2023-01-02T01:54:06.549Z,48.80
2023-01-02T01:56:36.312Z,48.60
2023-01-02T01:59:04.343Z,48.90
2023-01-02T02:01:33.001Z,49.50
2023-01-02T02:04:01.284Z,49.60
2023-01-02T02:06:30.805Z,49.40
2023-01-02T02:09:02.803Z,49.80
2023-01-02T02:11:31.913Z,50.20
2023-01-02T02:17:31.718Z,50.20
2023-01-02T02:20:20.054Z,49.60
2023-01-02T02:23:41.835Z,49.40
2023-01-02T02:26:40.654Z,49.30
2023-01-02T02:29:35.424Z,49.90
2023-01-02T02:32:15.841Z,49.60
2023-01-02T02:34:51.562Z,49.40
2023-01-02T02:37:26.698Z,49.30
2023-01-02T02:40:04.417Z,49.40
2023-01-02T02:42:44.926Z,49.80
2023-01-02T02:45:21.318Z,50.00
2023-01-02T02:47:56.892Z,49.20
2023-01-02T02:50:33.632Z,49.20
2023-01-02T02:53:06.180Z,49.20
2023-01-02T02:55:40.612Z,49.20
2023-01-02T02:58:09.773Z,49.00
2023-01-02T03:00:37.536Z,48.50
2023-01-02T03:03:17.663Z,47.90
2023-01-02T03:06:03.290Z,48.20
2023-01-02T03:08:41.168Z,48.30
2023-01-02T03:11:09.670Z,49.00
2023-01-02T03:13:44.951Z,49.60
2023-01-02T03:16:19.050Z,48.50
2023-01-02T03:18:56.063Z,47.60
2023-01-02T03:21:31.602Z,47.40
2023-01-02T03:24:03.181Z,47.10
2023-01-02T03:26:33.808Z,47.20
2023-01-02T03:29:07.494Z,47.20
2023-01-02T03:31:38.872Z,46.90
2023-01-02T03:34:12.152Z,47.00
2023-01-02T03:36:42.333Z,46.50
2023-01-02T03:39:13.421Z,46.80
2023-01-02T03:41:45.733Z,46.40
2023-01-02T03:44:15.114Z,46.10
2023-01-02T03:46:48.636Z,45.50
2023-01-02T03:49:23.493Z,46.00
2023-01-02T03:51:51.592Z,45.80
2023-01-02T03:54:20.319Z,46.30
2023-01-02T03:56:58.664Z,46.50
2023-01-02T03:59:35.195Z,46.20
2023-01-02T04:02:08.041Z,45.70
2023-01-02T04:04:48.582Z,45.80
2023-01-02T04:07:26.115Z,45.80
2023-01-02T04:09:55.271Z,45.30
2023-01-02T04:12:25.067Z,45.40
2023-01-02T04:14:59.681Z,45.10
2023-01-02T04:17:29.371Z,44.60
2023-01-02T04:20:03.171Z,44.70
2023-01-02T04:22:34.622Z,44.30
2023-01-02T04:25:07.349Z,43.90
2023-01-02T04:27:39.114Z,43.50
2023-01-02T04:30:07.912Z,43.60
2023-01-02T04:32:40.316Z,43.60
2023-01-02T04:35:11.579Z,44.10
2023-01-02T04:37:40.645Z,44.00
2023-01-02T04:40:14.524Z,44.40
2023-01-02T04:42:42.696Z,44.30
2023-01-02T04:45:11.377Z,44.10
2023-01-02T04:47:39.257Z,43.90
2023-01-02T04:50:09.994Z,44.40
2023-01-02T04:52:38.136Z,44.60
2023-01-02T04:55:08.186Z,44.50
2023-01-02T04:57:35.999Z,44.30
2023-01-02T05:00:04.023Z,44.50
2023-01-02T05:02:35.776Z,45.30
2023-01-02T05:05:03.859Z,50.50
2023-01-02T05:07:34.144Z,53.80
2023-01-02T05:10:01.957Z,54.70
2023-01-02T05:12:29.847Z,55.60
2023-01-02T05:14:57.668Z,56.70
2023-01-02T05:17:25.587Z,55.90
2023-01-02T05:19:53.414Z,56.30
2023-01-02T05:22:38.577Z,54.70
2023-01-02T05:25:09.286Z,55.20
2023-01-02T05:27:37.127Z,55.90
2023-01-02T05:30:06.239Z,55.90
2023-01-02T05:32:34.022Z,57.20
2023-01-02T05:35:01.804Z,58.20
2023-01-02T05:37:30.734Z,58.40
2023-01-02T05:39:58.567Z,58.80
2023-01-02T05:42:27.747Z,59.80
2023-01-02T05:44:55.525Z,59.90
2023-01-02T05:47:23.326Z,60.50
2023-01-02T05:49:51.113Z,61.20
2023-01-02T05:52:18.889Z,60.70
2023-01-02T05:54:46.671Z,60.80
2023-01-02T05:57:14.441Z,60.30
2023-01-02T05:59:43.615Z,60.00
2023-01-02T06:02:11.573Z,59.30
2023-01-02T06:04:39.529Z,57.30
2023-01-02T06:07:07.289Z,58.80
2023-01-02T06:09:35.070Z,61.30
2023-01-02T06:12:02.828Z,61.90
2023-01-02T06:14:30.648Z,61.20
2023-01-02T06:16:59.785Z,62.00
2023-01-02T06:19:27.587Z,62.30
2023-01-02T06:21:55.391Z,63.00
2023-01-02T06:24:23.183Z,63.50
2023-01-02T06:26:50.991Z,63.60
2023-01-02T06:29:18.775Z,64.40
2023-01-02T06:31:51.283Z,64.30
2023-01-02T06:34:21.084Z,64.70
2023-01-02T06:36:48.885Z,65.50
2023-01-02T06:39:16.722Z,65.30
2023-01-02T06:41:44.472Z,65.70
2023-01-02T06:44:14.075Z,65.80
2023-01-02T06:46:41.871Z,66.00
2023-01-02T06:49:09.678Z,65.80
2023-01-02T06:51:38.802Z,66.10
2023-01-02T06:54:06.638Z,65.50
2023-01-02T06:56:34.404Z,65.90
2023-01-02T06:59:02.193Z,66.20
2023-01-02T07:01:30.662Z,66.00
2023-01-02T07:03:58.566Z,65.90
2023-01-02T07:06:27.733Z,65.40
2023-01-02T07:08:56.936Z,65.50
2023-01-02T07:11:26.404Z,65.00
2023-01-02T07:13:55.382Z,64.50
2023-01-02T07:16:24.742Z,64.40
2023-01-02T07:18:53.717Z,64.30
2023-01-02T07:21:22.462Z,64.20
2023-01-02T07:23:50.278Z,64.60
2023-01-02T07:26:19.697Z,64.80
2023-01-02T07:28:48.212Z,64.90
2023-01-02T07:31:17.883Z,65.40
2023-01-02T07:33:46.428Z,65.60
2023-01-02T07:36:16.591Z,66.10
2023-01-02T07:38:45.132Z,66.50
2023-01-02T07:41:15.528Z,66.30
2023-01-02T07:43:46.009Z,66.20
2023-01-02T07:46:14.910Z,65.50
2023-01-02T07:48:42.814Z,64.60
2023-01-02T07:51:11.123Z,64.00
2023-01-02T07:53:39.522Z,63.60
2023-01-02T07:56:07.339Z,63.00
2023-01-02T07:58:35.261Z,62.90
2023-01-02T08:01:09.431Z,63.00
2023-01-02T08:03:37.765Z,63.50
2023-01-02T08:06:07.185Z,64.20
2023-01-02T08:08:35.062Z,64.90
2023-01-02T08:11:06.315Z,65.00
2023-01-02T08:13:34.785Z,64.30
2023-01-02T08:16:07.401Z,64.30
2023-01-02T08:18:35.602Z,64.40
2023-01-02T08:21:03.803Z,64.20
2023-01-02T08:23:31.787Z,63.60
2023-01-02T08:25:59.954Z,63.20
2023-01-02T08:28:28.146Z,62.80
2023-01-02T08:30:55.979Z,62.80
2023-01-02T08:33:25.292Z,62.80
2023-01-02T08:35:53.096Z,62.50
2023-01-02T08:38:21.165Z,62.20
2023-01-02T08:40:48.922Z,62.10
2023-01-02T08:43:16.679Z,62.20
2023-01-02T08:45:44.546Z,62.20
2023-01-02T08:48:20.474Z,62.00
2023-01-02T08:50:50.800Z,61.90
2023-01-02T08:53:18.897Z,61.60
2023-01-02T08:55:46.705Z,61.60
2023-01-02T08:58:14.671Z,62.50
2023-01-02T09:00:42.451Z,62.90
2023-01-02T09:03:10.273Z,63.60
2023-01-02T09:05:38.050Z,64.30
2023-01-02T09:08:07.365Z,64.70
2023-01-02T09:10:35.156Z,64.60
2023-01-02T09:13:03.000Z,64.50
2023-01-02T09:15:31.756Z,65.00
2023-01-02T09:17:59.577Z,65.40
2023-01-02T09:20:27.325Z,65.50
2023-01-02T09:22:55.118Z,65.40
2023-01-02T09:25:24.745Z,65.20
2023-01-02T09:27:52.940Z,65.00
2023-01-02T09:30:21.135Z,64.40
2023-01-02T09:32:49.131Z,63.70
2023-01-02T09:35:17.275Z,63.50
2023-01-02T09:37:45.848Z,63.10
2023-01-02T09:40:15.332Z,62.00
2023-01-02T09:42:45.935Z,62.20
2023-01-02T09:45:14.690Z,62.00
2023-01-02T09:47:44.711Z,61.40
2023-01-02T09:50:16.470Z,61.90
2023-01-02T09:52:46.676Z,62.80
2023-01-02T09:55:16.908Z,63.50
2023-01-02T09:57:52.931Z,63.50
2023-01-02T10:00:22.179Z,64.20
2023-01-02T10:03:06.007Z,63.70
2023-01-02T10:05:54.536Z,65.20
2023-01-02T10:08:32.816Z,64.40
2023-01-02T10:11:10.957Z,63.80
2023-01-02T10:14:17.242Z,63.00
2023-01-02T10:16:36.810Z,61.70
2023-01-02T10:19:12.773Z,60.60
2023-01-02T10:21:41.642Z,59.40
2023-01-02T10:24:15.994Z,58.70
2023-01-02T10:26:49.280Z,58.80
2023-01-02T10:29:27.521Z,57.80
2023-01-02T10:32:00.757Z,57.60
2023-01-02T10:34:34.888Z,56.40
2023-01-02T10:37:07.793Z,55.60
2023-01-02T10:39:36.022Z,54.50
2023-01-02T10:42:04.720Z,53.40
2023-01-02T10:44:36.298Z,51.40
2023-01-02T10:47:14.268Z,52.60
2023-01-02T10:49:44.949Z,50.30
2023-01-02T10:52:16.517Z,50.50
2023-01-02T10:54:56.759Z,50.80
2023-01-02T10:57:34.449Z,50.70
2023-01-02T11:00:05.867Z,49.70
2023-01-02T11:02:40.357Z,50.50
2023-01-02T11:05:19.409Z,50.30
2023-01-02T11:07:49.853Z,49.20
2023-01-02T11:10:25.121Z,49.40
2023-01-02T11:12:52.968Z,49.30
2023-01-02T11:15:30.852Z,49.40
2023-01-02T11:17:59.738Z,48.40
2023-01-02T11:20:31.418Z,48.10
2023-01-02T11:23:01.463Z,47.50
2023-01-02T11:25:33.671Z,47.00
2023-01-02T11:28:02.201Z,47.60
2023-01-02T11:30:36.850Z,47.90
2023-01-02T11:33:09.641Z,47.70
2023-01-02T11:35:46.443Z,48.20
2023-01-02T11:38:20.291Z,47.70
2023-01-02T11:41:00.349Z,47.70
2023-01-02T11:43:49.065Z,48.30
2023-01-02T11:46:29.893Z,48.10
2023-01-02T11:49:03.206Z,47.00
2023-01-02T11:51:34.852Z,47.70
2023-01-02T11:54:07.973Z,47.10
2023-01-02T11:56:38.298Z,46.50
2023-01-02T11:59:12.571Z,46.90
2023-01-02T12:01:57.776Z,47.00
2023-01-02T12:04:26.984Z,46.20
2023-01-02T12:07:08.081Z,46.70
2023-01-02T12:09:45.869Z,46.50
2023-01-02T12:12:40.501Z,47.70
2023-01-02T12:15:40.425Z,47.10
2023-01-02T12:18:24.616Z,47.10
2023-01-02T12:21:00.545Z,48.00
2023-01-02T12:23:51.290Z,47.70
2023-01-02T12:26:26.086Z,47.90
2023-01-02T12:29:15.028Z,48.00
2023-01-02T12:32:19.110Z,47.10
2023-01-02T12:35:08.979Z,46.30
2023-01-02T12:37:45.131Z,45.00
2023-01-02T12:40:30.038Z,45.70
2023-01-02T12:43:18.140Z,45.30
2023-01-02T12:45:51.958Z,46.10
2023-01-02T12:48:33.820Z,45.70
2023-01-02T12:51:15.018Z,46.10
2023-01-02T12:54:19.037Z,45.30
2023-01-02T12:56:55.649Z,45.60
2023-01-02T12:59:42.036Z,46.90
2023-01-02T13:02:22.332Z,47.00
2023-01-02T13:04:54.746Z,46.60
2023-01-02T13:07:30.896Z,46.90
2023-01-02T13:10:01.511Z,47.10
2023-01-02T13:12:32.358Z,47.70
2023-01-02T13:15:03.933Z,47.40
2023-01-02T13:17:47.650Z,47.90
2023-01-02T13:20:23.401Z,48.00
2023-01-02T13:23:04.506Z,47.60
2023-01-02T13:25:34.074Z,47.80
2023-01-02T13:28:05.835Z,48.20
2023-01-02T13:31:05.544Z,48.10
2023-01-02T13:33:46.450Z,48.30
2023-01-02T13:36:22.737Z,48.90
2023-01-02T13:38:54.781Z,48.50
2023-01-02T13:41:23.619Z,49.20
2023-01-02T13:43:55.823Z,49.20
2023-01-02T13:47:01.307Z,48.70
2023-01-02T13:49:21.405Z,49.00
2023-01-02T13:51:49.275Z,48.90
2023-01-02T13:54:21.106Z,48.50
2023-01-02T13:57:17.084Z,48.90
2023-01-02T13:59:52.658Z,49.60
2023-01-02T14:02:22.401Z,49.60
2023-01-02T14:04:50.611Z,49.70
2023-01-02T14:07:43.906Z,50.40
2023-01-02T14:10:40.675Z,50.80
2023-01-02T14:13:26.395Z,51.70
2023-01-02T14:16:29.902Z,51.80
2023-01-02T14:19:06.673Z,51.90
2023-01-02T14:21:37.223Z,51.40
2023-01-02T14:24:18.064Z,51.90
2023-01-02T14:26:53.528Z,52.50
2023-01-02T14:29:22.647Z,52.00
2023-01-02T14:31:51.748Z,51.90
2023-01-02T14:34:25.759Z,52.60
2023-01-02T14:36:56.645Z,52.50
2023-01-02T14:39:27.791Z,52.10
2023-01-02T14:42:38.836Z,52.40
2023-01-02T14:45:11.885Z,52.70
2023-01-02T14:47:41.620Z,53.00
2023-01-02T14:50:15.234Z,52.90
2023-01-02T14:52:48.028Z,53.40
2023-01-02T14:55:20.176Z,53.50
2023-01-02T14:57:52.595Z,53.70
2023-01-02T15:00:27.079Z,53.90
2023-01-02T15:02:59.838Z,54.40
2023-01-02T15:05:42.144Z,55.20
2023-01-02T15:08:13.708Z,56.10
2023-01-02T15:11:19.095Z,56.90
2023-01-02T15:14:03.988Z,57.40
2023-01-02T15:16:47.780Z,57.60
2023-01-02T15:19:22.040Z,58.20
2023-01-02T15:21:49.853Z,58.90
2023-01-02T15:24:21.205Z,59.20
2023-01-02T15:26:49.306Z,59.70
2023-01-02T15:29:24.634Z,60.10
2023-01-02T15:31:54.264Z,60.70
2023-01-02T15:34:27.055Z,60.90
2023-01-02T15:36:55.847Z,61.60
2023-01-02T15:39:30.923Z,62.00
2023-01-02T15:42:00.719Z,62.60
2023-01-02T15:44:52.510Z,63.00
2023-01-02T15:47:27.579Z,63.10
2023-01-02T15:49:57.366Z,63.10
2023-01-02T15:52:27.410Z,63.40
2023-01-02T15:54:56.016Z,64.00
2023-01-02T15:57:27.648Z,64.90
2023-01-02T15:59:57.226Z,66.00
2023-01-02T16:02:37.310Z,65.10
2023-01-02T16:05:14.806Z,65.20
2023-01-02T16:07:43.361Z,65.70
2023-01-02T16:14:20.863Z,67.40
2023-01-02T16:16:54.497Z,68.70
2023-01-02T16:19:27.161Z,69.30
2023-01-02T16:25:37.792Z,67.50
2023-01-02T16:28:49.333Z,67.50
2023-01-02T16:31:19.209Z,67.80
2023-01-02T16:37:37.344Z,68.30
2023-01-02T16:41:00.677Z,68.40
2023-01-02T16:43:25.569Z,68.30
2023-01-02T16:45:53.556Z,68.70
2023-01-02T16:48:25.201Z,68.90
2023-01-02T16:50:54.804Z,69.40
2023-01-02T16:53:27.346Z,69.70
2023-01-02T16:55:55.489Z,70.00
2023-01-02T16:58:25.202Z,70.30
2023-01-02T17:00:53.834Z,70.40
2023-01-02T17:03:24.228Z,70.70
2023-01-02T17:06:01.249Z,70.70
2023-01-02T17:08:32.461Z,70.50
2023-01-02T17:11:00.740Z,70.60
2023-01-02T17:13:29.835Z,70.40
2023-01-02T17:15:58.111Z,70.30
2023-01-02T17:18:26.458Z,70.40
2023-01-02T17:20:54.258Z,70.50
2023-01-02T17:23:22.039Z,70.60
2023-01-02T17:25:51.267Z,70.80
2023-01-02T17:28:19.337Z,70.90
2023-01-02T17:30:49.054Z,71.50
2023-01-02T17:33:17.328Z,71.90
2023-01-02T17:35:46.574Z,71.80
2023-01-02T17:38:14.412Z,71.90
2023-01-02T17:40:42.340Z,71.70
2023-01-02T17:43:11.587Z,72.00
2023-01-02T17:45:39.483Z,72.50
2023-01-02T17:48:11.965Z,72.90
2023-01-02T17:50:41.547Z,73.20
2023-01-02T17:53:09.402Z,73.10
2023-01-02T17:55:37.226Z,73.40
2023-01-02T17:58:05.392Z,73.70
2023-01-02T18:00:34.543Z,73.30
2023-01-02T18:03:02.516Z,73.40
2023-01-02T18:05:55.410Z,73.90
2023-01-02T18:08:23.208Z,74.30
2023-01-02T18:10:51.440Z,74.50
2023-01-02T18:13:19.198Z,74.70
2023-01-02T18:15:48.650Z,74.90
2023-01-02T18:18:17.161Z,75.10
2023-01-02T18:20:46.592Z,75.10
2023-01-02T18:23:15.415Z,75.30
2023-01-02T18:25:43.187Z,75.40
2023-01-02T18:28:23.189Z,75.70
2023-01-02T18:30:57.051Z,76.00
2023-01-02T18:33:26.339Z,76.20
2023-01-02T18:35:59.634Z,76.50
2023-01-02T18:38:31.535Z,76.60
2023-01-02T18:40:59.586Z,76.60
2023-01-02T18:43:29.564Z,76.90
2023-01-02T18:46:01.214Z,76.90
2023-01-02T18:48:28.977Z,77.10
2023-01-02T18:50:59.536Z,77.40
2023-01-02T18:53:30.532Z,77.70
2023-01-02T18:56:01.856Z,77.90
2023-01-02T18:58:38.444Z,77.90
2023-01-02T19:01:22.911Z,78.10
2023-01-02T19:03:56.515Z,78.40
2023-01-02T19:06:26.735Z,78.50
2023-01-02T19:08:54.747Z,78.60
2023-01-02T19:11:48.145Z,78.70
2023-01-02T19:14:18.573Z,78.80
2023-01-02T19:16:49.461Z,79.30
2023-01-02T19:19:18.377Z,79.30
2023-01-02T19:21:47.043Z,79.30
2023-01-02T19:24:19.902Z,80.00
2023-01-02T19:26:49.525Z,81.70
2023-01-02T19:29:20.479Z,83.50
2023-01-02T19:31:52.860Z,83.30
2023-01-02T19:34:37.262Z,82.90
2023-01-02T19:37:35.990Z,82.60
2023-01-02T19:40:07.737Z,83.10
2023-01-02T19:42:38.885Z,84.20
2023-01-02T19:45:08.979Z,87.00
2023-01-02T19:47:40.257Z,88.60
2023-01-02T19:50:10.970Z,89.40
2023-01-02T19:52:39.179Z,88.30
2023-01-02T19:55:08.639Z,89.00
2023-01-02T19:57:36.582Z,88.60
2023-01-02T20:00:07.147Z,88.70
2023-01-02T20:02:35.335Z,87.60
2023-01-02T20:05:04.812Z,87.50
2023-01-02T20:07:32.646Z,87.20
2023-01-02T20:10:00.469Z,86.60
2023-01-02T20:12:33.424Z,86.70
2023-01-02T20:15:02.934Z,86.10
2023-01-02T20:17:30.718Z,86.60
2023-01-02T20:19:59.113Z,86.90
2023-01-02T20:22:29.514Z,86.40
2023-01-02T20:24:57.634Z,85.00
2023-01-02T20:27:25.755Z,85.20
2023-01-02T20:29:55.098Z,84.90
2023-01-02T20:32:23.990Z,84.80
2023-01-02T20:34:52.120Z,85.00
2023-01-02T20:37:21.053Z,84.60
2023-01-02T20:39:50.746Z,84.80
2023-01-02T20:42:18.852Z,84.20
2023-01-02T20:44:47.102Z,83.90
2023-01-02T20:47:15.116Z,84.50
2023-01-02T20:49:42.897Z,84.60
2023-01-02T20:52:11.217Z,84.20
2023-01-02T20:54:39.040Z,84.20
2023-01-02T20:57:08.161Z,83.60
2023-01-02T20:59:36.085Z,83.40
2023-01-02T21:02:04.081Z,83.50
2023-01-02T21:04:36.567Z,83.60
2023-01-02T21:07:04.570Z,84.00
2023-01-02T21:09:32.410Z,83.80
2023-01-02T21:12:00.195Z,83.10
2023-01-02T21:14:35.484Z,83.30
2023-01-02T21:17:05.381Z,83.20
2023-01-02T21:19:33.182Z,83.60
2023-01-02T21:22:01.594Z,83.70
2023-01-02T21:24:29.359Z,82.90
2023-01-02T21:26:57.649Z,82.60
2023-01-02T21:29:25.416Z,82.80
2023-01-02T21:31:54.536Z,83.10
2023-01-02T21:34:22.435Z,83.00
2023-01-02T21:36:50.248Z,82.90
2023-01-02T21:39:18.781Z,82.50
2023-01-02T21:42:04.253Z,82.70
2023-01-02T21:44:32.004Z,82.40
2023-01-02T21:47:03.173Z,82.40
2023-01-02T21:49:31.062Z,82.20
2023-01-02T21:52:00.124Z,82.60
2023-01-02T21:54:28.292Z,82.50
2023-01-02T21:56:56.197Z,82.50
2023-01-02T21:59:25.500Z,82.80
2023-01-02T22:01:53.895Z,83.00
2023-01-02T22:04:23.781Z,83.10
2023-01-02T22:07:30.210Z,82.90
2023-01-02T22:09:39.545Z,82.80
2023-01-02T22:12:08.000Z,83.20
2023-01-02T22:14:37.115Z,83.60
2023-01-02T22:17:07.368Z,83.70
2023-01-02T22:19:37.538Z,84.00
2023-01-02T22:22:06.231Z,83.70
2023-01-02T22:24:39.127Z,83.80
2023-01-02T22:27:14.407Z,84.30
2023-01-02T22:32:33.448Z,85.20
2023-01-02T22:35:05.243Z,85.30
2023-01-02T22:37:33.169Z,86.20
2023-01-02T22:40:01.549Z,86.20
2023-01-02T22:43:05.935Z,86.10
2023-01-02T22:45:37.791Z,86.10
2023-01-02T22:48:09.243Z,86.30
2023-01-02T22:50:43.399Z,86.50
2023-01-02T22:53:19.927Z,86.60
2023-01-02T22:55:48.006Z,86.50
2023-01-02T22:58:15.818Z,86.30
2023-01-02T23:00:43.673Z,85.80
2023-01-02T23:03:16.084Z,85.90
2023-01-02T23:05:45.553Z,86.20
2023-01-02T23:08:14.276Z,86.20
2023-01-02T23:10:42.983Z,86.50
2023-01-02T23:13:10.778Z,86.30
2023-01-02T23:15:59.682Z,86.50
2023-01-02T23:18:45.209Z,86.50
2023-01-02T23:21:14.324Z,86.20
2023-01-02T23:23:42.155Z,86.20
2023-01-02T23:26:10.045Z,86.20
2023-01-02T23:29:06.073Z,86.50
2023-01-02T23:31:25.931Z,86.80
2023-01-02T23:33:53.726Z,86.40
2023-01-02T23:36:22.951Z,86.00
2023-01-02T23:38:50.764Z,86.00
2023-01-02T23:41:18.639Z,85.60
2023-01-02T23:43:46.406Z,86.10
2023-01-02T23:46:14.204Z,86.00
2023-01-02T23:48:41.970Z,86.10
2023-01-02T23:51:09.794Z,86.00
2023-01-02T23:53:38.925Z,85.90
2023-01-02T23:56:18.344Z,86.10
2023-01-02T23:58:46.312Z,86.10
